createdAt,value
2023-05-14T00:01:37.393Z,9.26
2023-05-14T00:05:45.830Z,9.22
2023-05-14T00:09:53.602Z,9.12
2023-05-14T00:14:01.692Z,8.99
2023-05-14T00:18:12.501Z,8.90
2023-05-14T00:22:21.070Z,8.86
2023-05-14T00:26:28.742Z,8.83
2023-05-14T00:30:36.268Z,8.84
2023-05-14T00:34:44.965Z,8.81
2023-05-14T00:38:56.367Z,8.76
2023-05-14T00:43:05.306Z,8.71
2023-05-14T00:47:13.751Z,8.64
2023-05-14T00:51:21.810Z,8.52
2023-05-14T00:55:30.120Z,8.45
2023-05-14T00:59:37.934Z,8.37
2023-05-14T01:03:46.221Z,8.37
2023-05-14T01:08:00.079Z,8.35
2023-05-14T01:12:14.029Z,8.33
2023-05-14T01:16:23.005Z,8.27
2023-05-14T01:20:30.902Z,8.20
2023-05-14T01:24:38.403Z,8.11
2023-05-14T01:28:47.742Z,8.07
2023-05-14T01:32:57.898Z,8.06
2023-05-14T01:37:06.208Z,8.09
2023-05-14T01:41:15.894Z,8.11
2023-05-14T01:45:25.624Z,8.09
2023-05-14T01:49:33.872Z,8.02
2023-05-14T01:53:41.826Z,7.94
2023-05-14T01:57:49.625Z,7.83
2023-05-14T02:01:57.293Z,7.78
2023-05-14T02:06:05.162Z,7.78
2023-05-14T02:10:13.845Z,7.76
2023-05-14T02:14:21.841Z,7.77
2023-05-14T02:18:29.855Z,7.70
2023-05-14T02:22:37.993Z,7.59
2023-05-14T02:26:46.532Z,7.48
2023-05-14T02:30:54.578Z,7.46
2023-05-14T02:35:03.153Z,7.44
2023-05-14T02:39:11.374Z,7.42
2023-05-14T02:43:19.731Z,7.42
2023-05-14T02:47:28.498Z,7.40
2023-05-14T02:51:35.919Z,7.36
2023-05-14T02:55:44.052Z,7.28
2023-05-14T02:59:55.340Z,7.15
2023-05-14T03:04:03.737Z,7.08
2023-05-14T03:08:11.018Z,7.06
2023-05-14T03:12:19.577Z,7.11
2023-05-14T03:16:28.084Z,7.13
2023-05-14T03:20:36.122Z,7.10
2023-05-14T03:24:44.412Z,7.07
2023-05-14T03:28:52.179Z,7.08
2023-05-14T03:33:00.153Z,7.14
2023-05-14T03:37:08.642Z,7.25
2023-05-14T03:41:18.506Z,7.36
2023-05-14T03:45:27.165Z,7.45
2023-05-14T03:49:35.362Z,7.50
2023-05-14T03:53:48.001Z,7.53
2023-05-14T03:57:56.129Z,7.54
2023-05-14T04:02:03.587Z,7.58
2023-05-14T04:06:11.728Z,7.65
2023-05-14T04:10:19.087Z,7.73
2023-05-14T04:14:26.587Z,7.80
2023-05-14T04:18:35.633Z,7.84
2023-05-14T04:22:43.554Z,7.87
2023-05-14T04:26:51.304Z,7.91
2023-05-14T04:30:59.541Z,7.99
2023-05-14T04:35:10.230Z,8.10
2023-05-14T04:39:19.285Z,8.19
2023-05-14T04:43:27.594Z,8.26
2023-05-14T04:47:35.604Z,8.32
2023-05-14T04:51:43.662Z,8.41
2023-05-14T04:55:52.087Z,8.51
2023-05-14T04:59:59.534Z,8.63
2023-05-14T05:04:07.341Z,8.75
2023-05-14T05:08:14.977Z,8.86
2023-05-14T05:12:23.048Z,8.96
2023-05-14T05:16:31.370Z,9.05
2023-05-14T05:20:39.860Z,9.14
2023-05-14T05:24:49.921Z,9.28
2023-05-14T05:29:03.033Z,9.46
2023-05-14T05:33:11.035Z,9.63
2023-05-14T05:37:18.239Z,9.77
2023-05-14T05:41:26.835Z,9.87
2023-05-14T05:45:34.969Z,9.96
2023-05-14T05:49:42.829Z,10.05
2023-05-14T05:53:51.042Z,10.17
2023-05-14T05:57:58.431Z,10.33
2023-05-14T06:02:06.637Z,10.49
2023-05-14T06:06:15.961Z,10.64
2023-05-14T06:10:24.736Z,10.78
2023-05-14T06:14:32.170Z,10.89
2023-05-14T06:18:40.300Z,11.02
2023-05-14T06:22:48.736Z,11.16
2023-05-14T06:26:56.394Z,11.32
2023-05-14T06:31:04.261Z,11.46
2023-05-14T06:35:12.984Z,11.58
2023-05-14T06:39:20.886Z,11.67
2023-05-14T06:43:28.604Z,11.75
2023-05-14T06:47:36.151Z,11.84
2023-05-14T06:51:44.459Z,12.06
2023-05-14T06:55:52.248Z,12.59
2023-05-14T07:00:02.876Z,13.22
2023-05-14T07:04:12.429Z,13.74
2023-05-14T07:08:20.636Z,14.25
2023-05-14T07:12:28.942Z,14.66
2023-05-14T07:16:37.063Z,14.99
2023-05-14T07:20:44.226Z,15.29
2023-05-14T07:24:52.623Z,15.56
2023-05-14T07:29:00.741Z,15.78
2023-05-14T07:33:10.589Z,15.96
2023-05-14T07:37:18.422Z,16.14
2023-05-14T07:41:25.814Z,16.29
2023-05-14T07:45:33.274Z,16.38
2023-05-14T07:49:40.983Z,16.36
2023-05-14T07:53:48.689Z,16.33
2023-05-14T07:57:56.261Z,16.36
2023-05-14T08:02:03.615Z,16.46
2023-05-14T08:06:11.982Z,16.63
2023-05-14T08:10:20.665Z,16.76
2023-05-14T08:14:28.960Z,16.84
2023-05-14T08:18:36.764Z,16.96
2023-05-14T08:22:47.219Z,17.02
2023-05-14T08:26:54.808Z,17.03
2023-05-14T08:31:04.202Z,17.07
2023-05-14T08:35:12.861Z,17.22
2023-05-14T08:39:21.042Z,17.38
2023-05-14T08:43:31.641Z,17.49
2023-05-14T08:47:39.738Z,17.65
2023-05-14T08:51:50.042Z,17.76
2023-05-14T08:55:59.886Z,17.82
2023-05-14T09:00:11.670Z,17.95
2023-05-14T09:04:23.252Z,18.11
2023-05-14T09:08:31.048Z,18.22
2023-05-14T09:12:38.790Z,18.32
2023-05-14T09:16:48.517Z,18.39
2023-05-14T09:20:56.366Z,18.43
2023-05-14T09:25:12.528Z,18.50
2023-05-14T09:29:20.498Z,18.67
2023-05-14T09:33:35.340Z,18.83
2023-05-14T09:37:49.142Z,18.93
2023-05-14T09:41:57.814Z,19.03
2023-05-14T09:46:05.838Z,19.06
2023-05-14T09:50:14.133Z,19.06
2023-05-14T09:54:23.505Z,19.10
2023-05-14T09:58:31.434Z,19.19
2023-05-14T10:02:41.536Z,19.27
2023-05-14T10:06:54.579Z,19.30
2023-05-14T10:11:05.497Z,19.47
2023-05-14T10:15:21.896Z,19.70
2023-05-14T10:19:30.211Z,19.81
2023-05-14T10:23:39.051Z,19.78
2023-05-14T10:27:47.412Z,19.88
2023-05-14T10:31:57.522Z,19.88
2023-05-14T10:36:08.755Z,19.79
2023-05-14T10:40:18.742Z,19.78
2023-05-14T10:44:26.074Z,19.92
2023-05-14T10:48:35.285Z,20.10
2023-05-14T10:52:44.414Z,20.32
2023-05-14T10:56:55.602Z,20.31
2023-05-14T11:01:03.810Z,20.34
2023-05-14T11:05:18.048Z,20.40
2023-05-14T11:09:27.658Z,20.37
2023-05-14T11:13:35.420Z,20.46
2023-05-14T11:17:44.915Z,20.69
2023-05-14T11:21:55.889Z,20.77
2023-05-14T11:26:03.432Z,20.85
2023-05-14T11:30:16.351Z,20.90
2023-05-14T11:34:23.889Z,20.96
2023-05-14T11:38:31.524Z,20.93
2023-05-14T11:42:39.585Z,21.13
2023-05-14T11:46:57.105Z,21.28
2023-05-14T11:51:05.998Z,21.47
2023-05-14T11:55:15.996Z,21.55
2023-05-14T11:59:25.350Z,21.73
2023-05-14T12:03:35.211Z,21.74
2023-05-14T12:07:45.669Z,21.83
2023-05-14T12:11:55.175Z,21.86
2023-05-14T12:16:03.946Z,22.00
2023-05-14T12:20:14.555Z,22.06
2023-05-14T12:24:25.112Z,22.10
2023-05-14T12:28:34.292Z,22.05
2023-05-14T12:32:44.192Z,21.62
2023-05-14T12:36:54.201Z,21.32
2023-05-14T12:41:01.732Z,21.13
2023-05-14T12:45:11.150Z,20.98
2023-05-14T12:49:18.691Z,21.10
2023-05-14T12:53:27.060Z,21.49
2023-05-14T12:57:35.826Z,21.81
2023-05-14T13:01:44.979Z,21.98
2023-05-14T13:05:54.861Z,22.16
2023-05-14T13:10:02.516Z,22.47
2023-05-14T13:14:10.451Z,22.76
2023-05-14T13:18:19.637Z,22.94
2023-05-14T13:22:29.153Z,22.91
2023-05-14T13:26:37.253Z,22.84
2023-05-14T13:30:45.011Z,22.76
2023-05-14T13:34:52.495Z,22.79
2023-05-14T13:39:01.014Z,22.83
2023-05-14T13:43:10.089Z,22.89
2023-05-14T13:47:18.072Z,22.96
2023-05-14T13:51:25.854Z,22.95
2023-05-14T13:55:33.925Z,22.85
2023-05-14T13:59:41.412Z,22.73
2023-05-14T14:03:48.808Z,22.57
2023-05-14T14:08:00.865Z,22.36
2023-05-14T14:12:16.191Z,22.19
2023-05-14T14:16:23.854Z,21.89
2023-05-14T14:20:32.099Z,21.68
2023-05-14T14:24:41.246Z,21.58
2023-05-14T14:28:48.615Z,21.47
2023-05-14T14:32:56.492Z,21.45
2023-05-14T14:37:03.817Z,21.50
2023-05-14T14:41:12.536Z,21.55
2023-05-14T14:45:20.471Z,21.65
2023-05-14T14:49:29.330Z,21.60
2023-05-14T14:53:37.878Z,21.40
2023-05-14T14:57:45.482Z,21.30
2023-05-14T15:01:54.101Z,21.20
2023-05-14T15:06:02.884Z,21.06
2023-05-14T15:10:13.376Z,20.99
2023-05-14T15:14:21.836Z,20.93
2023-05-14T15:18:30.056Z,20.82
2023-05-14T15:22:40.610Z,20.71
2023-05-14T15:26:48.011Z,20.60
2023-05-14T15:30:56.365Z,20.49
2023-05-14T15:35:04.177Z,20.40
2023-05-14T15:39:12.298Z,20.43
2023-05-14T15:43:20.151Z,20.48
2023-05-14T15:47:28.132Z,20.48
2023-05-14T15:51:35.860Z,20.47
2023-05-14T15:55:43.391Z,20.44
2023-05-14T15:59:51.535Z,20.36
2023-05-14T16:03:59.081Z,20.26
2023-05-14T16:08:06.864Z,20.15
2023-05-14T16:12:14.499Z,20.00
2023-05-14T16:16:23.714Z,19.90
2023-05-14T16:20:31.223Z,19.84
2023-05-14T16:24:40.434Z,19.77
2023-05-14T16:28:49.876Z,19.74
2023-05-14T16:32:57.746Z,19.69
2023-05-14T16:37:05.777Z,19.65
2023-05-14T16:41:13.386Z,19.59
2023-05-14T16:45:22.230Z,19.51
2023-05-14T16:49:29.628Z,19.43
2023-05-14T16:53:38.978Z,19.36
2023-05-14T16:57:47.208Z,19.29
2023-05-14T17:01:55.597Z,19.18
2023-05-14T17:06:04.750Z,19.07
2023-05-14T17:10:14.197Z,18.99
2023-05-14T17:14:21.945Z,18.97
2023-05-14T17:18:33.337Z,18.94
2023-05-14T17:22:42.061Z,18.90
2023-05-14T17:26:50.050Z,18.83
2023-05-14T17:30:57.803Z,18.74
2023-05-14T17:35:05.573Z,18.69
2023-05-14T17:39:13.131Z,18.62
2023-05-14T17:43:21.566Z,18.56
2023-05-14T17:47:29.531Z,18.50
2023-05-14T17:51:38.947Z,18.44
2023-05-14T17:55:46.765Z,18.37
2023-05-14T17:59:54.768Z,18.31
2023-05-14T18:04:02.486Z,18.26
2023-05-14T18:08:09.932Z,18.19
2023-05-14T18:12:17.881Z,18.09
2023-05-14T18:16:25.392Z,17.98
2023-05-14T18:20:35.346Z,17.93
2023-05-14T18:24:44.478Z,17.86
2023-05-14T18:28:52.655Z,17.74
2023-05-14T18:33:00.490Z,17.64
2023-05-14T18:37:09.212Z,17.57
2023-05-14T18:41:17.059Z,17.48
2023-05-14T18:45:24.525Z,17.38
2023-05-14T18:49:32.632Z,17.25
2023-05-14T18:53:40.692Z,17.12
2023-05-14T18:57:47.954Z,17.00
2023-05-14T19:01:56.931Z,16.85
2023-05-14T19:06:07.597Z,16.68
2023-05-14T19:10:15.185Z,16.57
2023-05-14T19:14:23.298Z,16.47
2023-05-14T19:18:31.047Z,16.38
2023-05-14T19:22:39.793Z,16.33
2023-05-14T19:26:48.275Z,16.27
2023-05-14T19:30:57.389Z,16.22
2023-05-14T19:35:05.245Z,16.13
2023-05-14T19:39:13.710Z,15.98
2023-05-14T19:43:22.438Z,15.77
2023-05-14T19:47:30.886Z,15.64
2023-05-14T19:51:44.184Z,15.57
2023-05-14T19:55:55.925Z,15.59
2023-05-14T20:00:04.778Z,15.64
2023-05-14T20:04:14.230Z,15.67
2023-05-14T20:08:22.725Z,15.60
2023-05-14T20:12:30.526Z,15.46
2023-05-14T20:16:38.373Z,15.24
2023-05-14T20:20:45.913Z,15.08
2023-05-14T20:24:54.016Z,15.04
2023-05-14T20:29:02.647Z,15.08
2023-05-14T20:33:10.827Z,15.16
2023-05-14T20:37:19.961Z,15.19
2023-05-14T20:41:27.687Z,15.16
2023-05-14T20:45:35.118Z,14.99
2023-05-14T20:49:42.982Z,14.88
2023-05-14T20:53:51.282Z,14.90
2023-05-14T20:57:58.871Z,14.90
2023-05-14T21:02:07.058Z,14.87
2023-05-14T21:06:14.890Z,14.90
2023-05-14T21:10:22.712Z,14.90
2023-05-14T21:14:30.393Z,14.92
2023-05-14T21:18:39.476Z,14.89
2023-05-14T21:22:49.641Z,14.92
2023-05-14T21:26:57.823Z,14.95
2023-05-14T21:31:06.188Z,14.98
2023-05-14T21:35:14.170Z,14.99
2023-05-14T21:39:21.655Z,14.94
2023-05-14T21:43:29.150Z,14.76
2023-05-14T21:47:37.073Z,14.59
2023-05-14T21:51:44.752Z,14.47
2023-05-14T21:55:52.127Z,14.45
2023-05-14T21:59:59.785Z,14.46
2023-05-14T22:04:07.851Z,14.45
2023-05-14T22:08:17.199Z,14.46
2023-05-14T22:12:25.165Z,14.44
2023-05-14T22:16:32.795Z,14.48
2023-05-14T22:20:41.379Z,14.50
2023-05-14T22:24:49.404Z,14.48
2023-05-14T22:28:58.004Z,14.44
2023-05-14T22:33:05.769Z,14.29
2023-05-14T22:37:14.264Z,14.14
2023-05-14T22:41:22.704Z,14.05
2023-05-14T22:45:30.063Z,13.94
2023-05-14T22:49:38.190Z,13.86
2023-05-14T22:53:47.339Z,13.85
2023-05-14T22:57:55.045Z,13.89
2023-05-14T23:02:03.098Z,13.99
2023-05-14T23:06:13.835Z,14.07
2023-05-14T23:10:21.637Z,14.12
2023-05-14T23:14:29.214Z,14.16
2023-05-14T23:18:36.922Z,14.16
2023-05-14T23:22:45.103Z,14.19
2023-05-14T23:26:53.314Z,14.16
2023-05-14T23:31:01.428Z,14.12
2023-05-14T23:35:10.079Z,13.99
2023-05-14T23:39:19.218Z,13.81
2023-05-14T23:43:27.375Z,13.72
2023-05-14T23:47:35.217Z,13.67
2023-05-14T23:51:43.273Z,13.59
2023-05-14T23:55:51.083Z,13.57
2023-05-14T23:59:59.196Z,13.52
